createdAt,value
2018-05-23T00:00:54.550Z,0
2018-05-23T00:02:04.775Z,0
2018-05-23T00:03:14.974Z,0
2018-05-23T00:04:24.867Z,0
2018-05-23T00:05:35.978Z,0
2018-05-23T00:06:46.114Z,0
2018-05-23T00:07:55.989Z,0
2018-05-23T00:09:06.148Z,0
2018-05-23T00:10:16.333Z,0
2018-05-23T00:11:26.460Z,0
2018-05-23T00:12:36.676Z,0
2018-05-23T00:13:46.895Z,0
2018-05-23T00:14:57.048Z,0
2018-05-23T00:16:07.320Z,0
2018-05-23T00:17:17.208Z,0
2018-05-23T00:18:27.370Z,0
2018-05-23T00:19:37.499Z,0
2018-05-23T00:20:47.633Z,0
2018-05-23T00:21:57.803Z,0
2018-05-23T00:23:07.949Z,0
2018-05-23T00:24:18.133Z,0
2018-05-23T00:25:28.285Z,0
2018-05-23T00:26:38.427Z,0
2018-05-23T00:27:48.599Z,0
2018-05-23T00:28:58.714Z,0
2018-05-23T00:30:09.097Z,0
2018-05-23T00:31:19.013Z,0
2018-05-23T00:32:29.136Z,0
2018-05-23T00:33:39.280Z,0
2018-05-23T00:34:49.403Z,0
2018-05-23T00:35:59.577Z,0
2018-05-23T00:37:09.709Z,0
2018-05-23T00:38:19.862Z,0
2018-05-23T00:39:30.069Z,0
2018-05-23T00:40:40.202Z,0
2018-05-23T00:41:50.368Z,0
2018-05-23T00:43:00.503Z,0
2018-05-23T00:44:10.740Z,0
2018-05-23T00:45:21.847Z,0
2018-05-23T00:46:32.110Z,0
2018-05-23T00:47:42.352Z,0
2018-05-23T00:48:52.175Z,0
2018-05-23T00:50:02.349Z,0
2018-05-23T00:51:12.505Z,0
2018-05-23T00:52:22.388Z,0
2018-05-23T00:53:32.522Z,0
2018-05-23T00:54:42.701Z,0
2018-05-23T00:55:52.868Z,0
2018-05-23T00:57:03.010Z,0
2018-05-23T00:58:13.286Z,0
2018-05-23T00:59:23.439Z,0
2018-05-23T01:00:33.798Z,0
2018-05-23T01:01:44.052Z,0
2018-05-23T01:02:54.213Z,0
2018-05-23T01:04:04.428Z,0
2018-05-23T01:05:14.300Z,0
2018-05-23T01:06:24.171Z,0
2018-05-23T01:07:34.307Z,0
2018-05-23T01:08:44.435Z,0
2018-05-23T01:09:54.589Z,0
2018-05-23T01:11:04.459Z,0
2018-05-23T01:12:14.652Z,0
2018-05-23T01:13:24.778Z,0
2018-05-23T01:14:34.706Z,0
2018-05-23T01:15:44.841Z,0
2018-05-23T01:16:55.005Z,0
2018-05-23T01:18:05.138Z,0
2018-05-23T01:19:15.327Z,0
2018-05-23T01:20:25.595Z,0
2018-05-23T01:21:35.488Z,0
2018-05-23T01:22:45.444Z,0
2018-05-23T01:23:55.604Z,0
2018-05-23T01:25:05.487Z,0
2018-05-23T01:26:15.761Z,0
2018-05-23T01:27:26.063Z,0
2018-05-23T01:28:36.214Z,0
2018-05-23T01:29:46.400Z,0
2018-05-23T01:30:56.667Z,0
2018-05-23T01:32:06.632Z,0
2018-05-23T01:33:16.758Z,0
2018-05-23T01:34:26.634Z,0
2018-05-23T01:35:37.021Z,0
2018-05-23T01:36:47.214Z,0
2018-05-23T01:37:57.361Z,0
2018-05-23T01:39:07.587Z,0
2018-05-23T01:40:17.466Z,0
2018-05-23T01:41:27.463Z,0
2018-05-23T01:42:37.646Z,0
2018-05-23T01:43:47.774Z,0
2018-05-23T01:44:57.920Z,0
2018-05-23T01:46:08.045Z,0
2018-05-23T01:47:18.172Z,0
2018-05-23T01:48:28.327Z,0
2018-05-23T01:49:38.248Z,0
2018-05-23T01:50:47.874Z,0
2018-05-23T01:51:57.993Z,0
2018-05-23T01:53:08.110Z,0
2018-05-23T01:54:18.259Z,0
2018-05-23T01:55:28.123Z,0
2018-05-23T01:56:38.287Z,0
2018-05-23T01:57:48.164Z,0
2018-05-23T01:58:58.294Z,0
2018-05-23T02:00:08.162Z,0
2018-05-23T02:01:18.510Z,0
2018-05-23T02:02:28.730Z,0
2018-05-23T02:03:38.917Z,0
2018-05-23T02:04:48.760Z,0
2018-05-23T02:05:58.624Z,0
2018-05-23T02:07:08.746Z,0
2018-05-23T02:08:18.884Z,0
2018-05-23T02:09:29.136Z,0
2018-05-23T02:10:39.361Z,0
2018-05-23T02:11:49.551Z,0
2018-05-23T02:12:59.419Z,0
2018-05-23T02:14:09.555Z,0
2018-05-23T02:15:19.676Z,0
2018-05-23T02:16:29.856Z,0
2018-05-23T02:17:40.015Z,0
2018-05-23T02:18:50.171Z,0
2018-05-23T02:20:00.295Z,0
2018-05-23T02:21:10.432Z,0
2018-05-23T02:22:20.614Z,0
2018-05-23T02:23:30.871Z,0
2018-05-23T02:24:40.744Z,0
2018-05-23T02:25:50.502Z,0
2018-05-23T02:27:00.641Z,0
2018-05-23T02:28:10.787Z,4
2018-05-23T02:29:20.968Z,4
2018-05-23T02:30:31.107Z,0
2018-05-23T02:31:41.253Z,0
2018-05-23T02:32:51.431Z,4
2018-05-23T02:34:01.564Z,4
2018-05-23T02:35:11.696Z,4
2018-05-23T02:36:21.463Z,4
2018-05-23T02:37:31.591Z,4
2018-05-23T02:38:41.762Z,4
2018-05-23T02:39:51.635Z,8
2018-05-23T02:41:01.771Z,8
2018-05-23T02:42:11.751Z,12
2018-05-23T02:43:21.937Z,8
2018-05-23T02:44:32.074Z,12
2018-05-23T02:45:42.098Z,16
2018-05-23T02:46:52.419Z,16
2018-05-23T02:48:02.310Z,20
2018-05-23T02:49:12.438Z,20
2018-05-23T02:50:22.598Z,24
2018-05-23T02:51:32.778Z,28
2018-05-23T02:52:42.926Z,32
2018-05-23T02:53:53.127Z,36
2018-05-23T02:55:03.017Z,44
2018-05-23T02:56:13.155Z,48
2018-05-23T02:57:23.325Z,56
2018-05-23T02:58:33.481Z,64
2018-05-23T02:59:43.738Z,72
2018-05-23T03:00:53.977Z,84
2018-05-23T03:02:04.229Z,92
2018-05-23T03:03:14.692Z,100
2018-05-23T03:04:24.469Z,116
2018-05-23T03:05:34.372Z,128
2018-05-23T03:06:44.513Z,140
2018-05-23T03:07:54.653Z,156
2018-05-23T03:09:05.124Z,172
2018-05-23T03:10:15.327Z,188
2018-05-23T03:11:25.469Z,204
2018-05-23T03:12:35.616Z,228
2018-05-23T03:13:45.879Z,248
2018-05-23T03:14:56.002Z,268
2018-05-23T03:16:06.124Z,288
2018-05-23T03:17:16.317Z,316
2018-05-23T03:18:26.433Z,340
2018-05-23T03:19:36.573Z,364
2018-05-23T03:20:46.804Z,392
2018-05-23T03:21:57.001Z,416
2018-05-23T03:23:07.241Z,448
2018-05-23T03:24:17.496Z,472
2018-05-23T03:25:27.642Z,500
2018-05-23T03:26:37.883Z,528
2018-05-23T03:27:48.060Z,556
2018-05-23T03:28:58.335Z,584
2018-05-23T03:30:08.549Z,616
2018-05-23T03:31:18.726Z,644
2018-05-23T03:32:28.675Z,672
2018-05-23T03:33:38.799Z,704
2018-05-23T03:34:49.187Z,732
2018-05-23T03:35:58.962Z,760
2018-05-23T03:37:09.091Z,784
2018-05-23T03:38:19.232Z,812
2018-05-23T03:39:29.383Z,840
2018-05-23T03:40:39.577Z,864
2018-05-23T03:41:49.457Z,892
2018-05-23T03:42:59.243Z,920
2018-05-23T03:44:09.378Z,944
2018-05-23T03:45:19.541Z,976
2018-05-23T03:46:29.700Z,1004
2018-05-23T03:47:39.893Z,1036
2018-05-23T03:48:49.770Z,1064
2018-05-23T03:49:59.915Z,1092
2018-05-23T03:51:10.108Z,1120
2018-05-23T03:52:20.313Z,1144
2018-05-23T03:53:30.462Z,1176
2018-05-23T03:54:40.340Z,1204
2018-05-23T03:55:50.589Z,1232
2018-05-23T03:57:00.740Z,1264
2018-05-23T03:58:10.977Z,1296
2018-05-23T03:59:21.190Z,1328
2018-05-23T04:00:31.409Z,1356
2018-05-23T04:01:41.627Z,1392
2018-05-23T04:02:51.495Z,1432
2018-05-23T04:04:01.637Z,1464
2018-05-23T04:05:11.854Z,1496
2018-05-23T04:06:21.985Z,1536
2018-05-23T04:07:31.860Z,1576
2018-05-23T04:08:42.042Z,1620
2018-05-23T04:09:53.269Z,1664
2018-05-23T04:11:03.407Z,1704
2018-05-23T04:12:13.624Z,1736
2018-05-23T04:13:23.514Z,1780
2018-05-23T04:14:33.646Z,1828
2018-05-23T04:15:43.829Z,1868
2018-05-23T04:16:53.734Z,1908
2018-05-23T04:18:03.863Z,1948
2018-05-23T04:19:14.005Z,1984
2018-05-23T04:20:23.864Z,2012
2018-05-23T04:21:34.001Z,2036
2018-05-23T04:22:44.143Z,2060
2018-05-23T04:23:54.332Z,2084
2018-05-23T04:25:04.646Z,2112
2018-05-23T04:26:14.881Z,2136
2018-05-23T04:27:25.091Z,2160
2018-05-23T04:28:35.254Z,2176
2018-05-23T04:29:45.489Z,2216
2018-05-23T04:30:55.615Z,2260
2018-05-23T04:32:05.865Z,2296
2018-05-23T04:33:16.058Z,2344
2018-05-23T04:34:26.273Z,2384
2018-05-23T04:35:36.446Z,2412
2018-05-23T04:36:46.590Z,2436
2018-05-23T04:37:56.723Z,2456
2018-05-23T04:39:06.901Z,2484
2018-05-23T04:40:17.038Z,2508
2018-05-23T04:41:26.956Z,2532
2018-05-23T04:42:37.082Z,2556
2018-05-23T04:43:47.223Z,2572
2018-05-23T04:44:57.446Z,2580
2018-05-23T04:46:07.610Z,2580
2018-05-23T04:47:17.844Z,2580
2018-05-23T04:48:27.758Z,2576
2018-05-23T04:49:37.779Z,2540
2018-05-23T04:50:47.988Z,2440
2018-05-23T04:51:58.270Z,2524
2018-05-23T04:53:08.516Z,2540
2018-05-23T04:54:18.657Z,2524
2018-05-23T04:55:28.941Z,2636
2018-05-23T04:56:39.156Z,2632
2018-05-23T04:57:49.370Z,2744
2018-05-23T04:58:59.390Z,2848
2018-05-23T05:00:09.517Z,2904
2018-05-23T05:01:19.312Z,2936
2018-05-23T05:02:29.175Z,3000
2018-05-23T05:03:39.058Z,3068
2018-05-23T05:04:49.333Z,3004
2018-05-23T05:05:59.518Z,3152
2018-05-23T05:07:09.705Z,3132
2018-05-23T05:08:19.877Z,3156
2018-05-23T05:09:30.042Z,3224
2018-05-23T05:10:40.207Z,3240
2018-05-23T05:11:50.346Z,3260
2018-05-23T05:13:00.493Z,3264
2018-05-23T05:14:10.291Z,3268
2018-05-23T05:15:20.414Z,3280
2018-05-23T05:16:30.656Z,3280
2018-05-23T05:17:40.777Z,3292
2018-05-23T05:18:51.010Z,3304
2018-05-23T05:20:01.267Z,3320
2018-05-23T05:21:11.438Z,3344
2018-05-23T05:22:21.616Z,3392
2018-05-23T05:23:32.798Z,3428
2018-05-23T05:24:43.010Z,3456
2018-05-23T05:25:53.192Z,3468
2018-05-23T05:27:03.468Z,3476
2018-05-23T05:28:13.354Z,3488
2018-05-23T05:29:23.538Z,3508
2018-05-23T05:30:33.313Z,3528
2018-05-23T05:31:43.641Z,3548
2018-05-23T05:32:53.798Z,3568
2018-05-23T05:34:03.970Z,3572
2018-05-23T05:35:13.644Z,3596
2018-05-23T05:36:23.437Z,3612
2018-05-23T05:37:33.604Z,3624
2018-05-23T05:38:43.519Z,3620
2018-05-23T05:39:53.484Z,3644
2018-05-23T05:41:03.693Z,3656
2018-05-23T05:42:13.566Z,3668
2018-05-23T05:43:23.705Z,3680
2018-05-23T05:44:33.594Z,3696
2018-05-23T05:45:43.727Z,3712
2018-05-23T05:46:54.054Z,3744
2018-05-23T05:48:04.289Z,3776
2018-05-23T05:49:14.269Z,3824
2018-05-23T05:50:24.553Z,3848
2018-05-23T05:51:34.448Z,3916
2018-05-23T05:52:44.647Z,3976
2018-05-23T05:53:54.656Z,4092
2018-05-23T05:55:04.853Z,4308
2018-05-23T05:56:15.021Z,4404
2018-05-23T05:57:25.173Z,4420
2018-05-23T05:58:35.333Z,4044
2018-05-23T05:59:45.463Z,4032
2018-05-23T06:00:55.585Z,4056
2018-05-23T06:02:05.844Z,4072
2018-05-23T06:03:16.173Z,4076
2018-05-23T06:04:26.297Z,4108
2018-05-23T06:05:36.443Z,4156
2018-05-23T06:06:46.334Z,4204
2018-05-23T06:07:56.211Z,4232
2018-05-23T06:09:06.381Z,4284
2018-05-23T06:10:16.512Z,4340
2018-05-23T06:11:26.214Z,4376
2018-05-23T06:12:36.361Z,4432
2018-05-23T06:13:46.541Z,4472
2018-05-23T06:14:56.694Z,4488
2018-05-23T06:16:06.622Z,4536
2018-05-23T06:17:16.780Z,4560
2018-05-23T06:18:26.953Z,4596
2018-05-23T06:19:37.182Z,4636
2018-05-23T06:20:47.314Z,4680
2018-05-23T06:21:57.530Z,4712
2018-05-23T06:23:07.679Z,4760
2018-05-23T06:24:18.791Z,4808
2018-05-23T06:25:28.918Z,4836
2018-05-23T06:26:39.077Z,4844
2018-05-23T06:27:49.250Z,4860
2018-05-23T06:28:59.444Z,4852
2018-05-23T06:30:09.653Z,4900
2018-05-23T06:31:19.848Z,4956
2018-05-23T06:32:29.981Z,4996
2018-05-23T06:33:39.902Z,5092
2018-05-23T06:34:50.025Z,5156
2018-05-23T06:36:00.249Z,5228
2018-05-23T06:37:10.517Z,5324
2018-05-23T06:38:20.362Z,5396
2018-05-23T06:39:30.505Z,5396
2018-05-23T06:40:40.636Z,5584
2018-05-23T06:41:50.514Z,5640
2018-05-23T06:43:00.620Z,5656
2018-05-23T06:44:10.858Z,5884
2018-05-23T06:45:21.128Z,5916
2018-05-23T06:46:30.996Z,5952
2018-05-23T06:47:40.786Z,5996
2018-05-23T06:48:50.933Z,6004
2018-05-23T06:50:01.430Z,6008
2018-05-23T06:51:11.707Z,6012
2018-05-23T06:52:21.828Z,5956
2018-05-23T06:53:31.623Z,5904
2018-05-23T06:54:41.866Z,5816
2018-05-23T06:55:52.222Z,5724
2018-05-23T06:57:02.400Z,5668
2018-05-23T06:58:12.553Z,5560
2018-05-23T06:59:22.842Z,5528
2018-05-23T07:00:32.777Z,5528
2018-05-23T07:01:42.913Z,5552
2018-05-23T07:02:53.163Z,5636
2018-05-23T07:04:03.365Z,5720
2018-05-23T07:05:13.508Z,5868
2018-05-23T07:06:23.694Z,6012
2018-05-23T07:07:33.915Z,6108
2018-05-23T07:08:44.100Z,6168
2018-05-23T07:09:54.276Z,6232
2018-05-23T07:11:04.611Z,6300
2018-05-23T07:12:14.813Z,6368
2018-05-23T07:13:24.971Z,6456
2018-05-23T07:14:35.116Z,6516
2018-05-23T07:15:45.413Z,6544
2018-05-23T07:16:55.580Z,6516
2018-05-23T07:18:06.089Z,6528
2018-05-23T07:19:16.276Z,6572
2018-05-23T07:20:26.409Z,6628
2018-05-23T07:21:36.308Z,6636
2018-05-23T07:22:46.475Z,6720
2018-05-23T07:23:56.629Z,6612
2018-05-23T07:25:06.775Z,6600
2018-05-23T07:26:16.970Z,6576
2018-05-23T07:27:27.142Z,6460
2018-05-23T07:28:37.285Z,6456
2018-05-23T07:29:47.430Z,6176
2018-05-23T07:30:57.716Z,6088
2018-05-23T07:32:07.604Z,5848
2018-05-23T07:33:17.897Z,6040
2018-05-23T07:34:28.058Z,5792
2018-05-23T07:35:38.241Z,5712
2018-05-23T07:36:48.385Z,5816
2018-05-23T07:37:58.570Z,5980
2018-05-23T07:39:08.742Z,6240
2018-05-23T07:40:18.911Z,6504
2018-05-23T07:41:28.802Z,6760
2018-05-23T07:42:39.076Z,6992
2018-05-23T07:43:49.292Z,7096
2018-05-23T07:44:59.494Z,7072
2018-05-23T07:46:09.644Z,6848
2018-05-23T07:47:19.902Z,6272
2018-05-23T07:48:30.074Z,6452
2018-05-23T07:49:39.622Z,6568
2018-05-23T07:50:49.744Z,6740
2018-05-23T07:51:59.892Z,7296
2018-05-23T07:53:10.044Z,8164
2018-05-23T07:54:19.930Z,8468
2018-05-23T07:55:30.081Z,8772
2018-05-23T07:56:40.433Z,9088
2018-05-23T07:57:50.673Z,9364
2018-05-23T07:59:00.823Z,9608
2018-05-23T08:00:10.973Z,9776
2018-05-23T08:01:21.129Z,9996
2018-05-23T08:02:31.294Z,10120
2018-05-23T08:03:41.442Z,10060
2018-05-23T08:04:51.578Z,9760
2018-05-23T08:06:01.737Z,9452
2018-05-23T08:07:11.868Z,9252
2018-05-23T08:08:22.020Z,8908
2018-05-23T08:09:32.167Z,8540
2018-05-23T08:10:42.353Z,8104
2018-05-23T08:11:52.594Z,7768
2018-05-23T08:13:02.822Z,7556
2018-05-23T08:14:12.986Z,7356
2018-05-23T08:15:23.257Z,7512
2018-05-23T08:16:33.433Z,7692
2018-05-23T08:17:43.834Z,8096
2018-05-23T08:18:53.981Z,8408
2018-05-23T08:20:04.116Z,8392
2018-05-23T08:21:14.344Z,8464
2018-05-23T08:22:24.530Z,8512
2018-05-23T08:23:34.342Z,8592
2018-05-23T08:24:44.507Z,8640
2018-05-23T08:25:54.756Z,8708
2018-05-23T08:27:04.900Z,8860
2018-05-23T08:28:15.079Z,8904
2018-05-23T08:29:25.211Z,9248
2018-05-23T08:30:35.390Z,10032
2018-05-23T08:31:45.535Z,19936
2018-05-23T08:32:55.683Z,42080
2018-05-23T08:34:05.872Z,56768
2018-05-23T08:35:16.078Z,61920
2018-05-23T08:36:26.437Z,59040
2018-05-23T08:37:36.674Z,54432
2018-05-23T08:38:46.897Z,57152
2018-05-23T08:39:57.044Z,49856
2018-05-23T08:41:07.244Z,44640
2018-05-23T08:42:17.486Z,50272
2018-05-23T08:43:27.656Z,50304
2018-05-23T08:44:37.850Z,52064
2018-05-23T08:45:48.103Z,52864
2018-05-23T08:46:58.279Z,52480
2018-05-23T08:48:10.246Z,53824
2018-05-23T08:49:21.613Z,54944
2018-05-23T08:50:31.933Z,56352
2018-05-23T08:51:42.172Z,57504
2018-05-23T08:52:52.077Z,55168
2018-05-23T08:54:02.228Z,68448
2018-05-23T08:55:12.391Z,65472
2018-05-23T08:56:22.621Z,56320
2018-05-23T08:57:32.817Z,68160
2018-05-23T08:58:43.029Z,58336
2018-05-23T08:59:53.188Z,40928
2018-05-23T09:01:03.351Z,41184
2018-05-23T09:02:13.550Z,43904
2018-05-23T09:03:23.686Z,41088
2018-05-23T09:04:33.855Z,38496
2018-05-23T09:05:45.236Z,35200
2018-05-23T09:06:55.414Z,49600
2018-05-23T09:08:05.606Z,52928
2018-05-23T09:09:15.825Z,57248
2018-05-23T09:10:25.720Z,56864
2018-05-23T09:11:35.965Z,58208
2018-05-23T09:12:46.388Z,44864
2018-05-23T09:13:57.516Z,39584
2018-05-23T09:15:07.658Z,43104
2018-05-23T09:16:17.866Z,53536
2018-05-23T09:17:28.055Z,40480
2018-05-23T09:18:38.347Z,45728
2018-05-23T09:19:48.543Z,61440
2018-05-23T09:20:58.686Z,62656
2018-05-23T09:22:08.858Z,55104
2018-05-23T09:23:19.294Z,66944
2018-05-23T09:24:29.443Z,72064
2018-05-23T09:25:39.673Z,74624
2018-05-23T09:26:49.824Z,75296
2018-05-23T09:28:00.083Z,72544
2018-05-23T09:29:10.061Z,67072
2018-05-23T09:30:20.319Z,60000
2018-05-23T09:31:31.592Z,68256
2018-05-23T09:32:41.882Z,68192
2018-05-23T09:33:52.081Z,60160
2018-05-23T09:35:02.353Z,56128
2018-05-23T09:36:12.511Z,55552
2018-05-23T09:37:23.667Z,78560
2018-05-23T09:38:34.899Z,72896
2018-05-23T09:39:45.109Z,68352
2018-05-23T09:40:55.400Z,66432
2018-05-23T09:42:06.420Z,72128
2018-05-23T09:43:16.676Z,85632
2018-05-23T09:44:26.947Z,77952
2018-05-23T09:45:37.910Z,63680
2018-05-23T09:46:50.774Z,76832
2018-05-23T09:48:01.163Z,79808
2018-05-23T09:49:26.884Z,72576
2018-05-23T09:50:37.864Z,78528
2018-05-23T09:51:47.512Z,73792
2018-05-23T09:52:57.299Z,60288
2018-05-23T09:54:07.458Z,70048
2018-05-23T09:55:17.758Z,68576
2018-05-23T09:56:27.917Z,56256
2018-05-23T09:57:38.079Z,71872
2018-05-23T09:58:49.269Z,62208
2018-05-23T09:59:59.203Z,60256
2018-05-23T10:01:09.345Z,67456
2018-05-23T10:02:18.887Z,65792
2018-05-23T10:03:28.791Z,65760
2018-05-23T10:04:39.008Z,74432
2018-05-23T10:05:49.206Z,76416
2018-05-23T10:06:59.409Z,79648
2018-05-23T10:08:09.569Z,75360
2018-05-23T10:09:20.698Z,79136
2018-05-23T10:10:30.996Z,88352
2018-05-23T10:11:40.897Z,88704
2018-05-23T10:12:51.124Z,89760
2018-05-23T10:14:01.346Z,93312
2018-05-23T10:15:11.517Z,95136
2018-05-23T10:16:21.721Z,90688
2018-05-23T10:17:31.947Z,85472
2018-05-23T10:18:42.128Z,91264
2018-05-23T10:19:52.305Z,99232
2018-05-23T10:21:02.477Z,102688
2018-05-23T10:22:12.645Z,101344
2018-05-23T10:23:22.565Z,84480
2018-05-23T10:24:32.748Z,60832
2018-05-23T10:25:42.913Z,64896
2018-05-23T10:26:53.072Z,71424
2018-05-23T10:28:03.232Z,74976
2018-05-23T10:29:13.406Z,66528
2018-05-23T10:30:23.606Z,59008
2018-05-23T10:31:33.153Z,71872
2018-05-23T10:32:43.338Z,88384
2018-05-23T10:33:53.512Z,90304
2018-05-23T10:35:03.745Z,79520
2018-05-23T10:36:13.929Z,72448
2018-05-23T10:37:24.088Z,64608
2018-05-23T10:38:34.266Z,54592
2018-05-23T10:39:44.419Z,57088
2018-05-23T10:40:54.662Z,46336
2018-05-23T10:42:04.879Z,46176
2018-05-23T10:43:14.683Z,45216
2018-05-23T10:44:24.598Z,50272
2018-05-23T10:45:34.783Z,48640
2018-05-23T10:46:44.942Z,54080
2018-05-23T10:47:55.132Z,47520
2018-05-23T10:49:05.909Z,50944
2018-05-23T10:50:17.071Z,48768
2018-05-23T10:51:27.237Z,46336
2018-05-23T10:52:36.811Z,49216
2018-05-23T10:53:47.224Z,50016
2018-05-23T10:54:57.139Z,55360
2018-05-23T10:56:07.302Z,50656
2018-05-23T10:57:17.892Z,46080
2018-05-23T10:58:28.193Z,45024
2018-05-23T10:59:38.383Z,50208
2018-05-23T11:00:48.635Z,57856
2018-05-23T11:01:58.811Z,54912
2018-05-23T11:03:08.913Z,60800
2018-05-23T11:04:19.136Z,57120
2018-05-23T11:05:29.334Z,60000
2018-05-23T11:06:39.615Z,62784
2018-05-23T11:07:49.780Z,63296
2018-05-23T11:09:00.186Z,59328
2018-05-23T11:10:10.449Z,62976
2018-05-23T11:11:21.603Z,68128
2018-05-23T11:12:31.796Z,65056
2018-05-23T11:13:42.091Z,66976
2018-05-23T11:14:52.477Z,59008
2018-05-23T11:16:02.766Z,58080
2018-05-23T11:17:13.049Z,61120
2018-05-23T11:18:23.019Z,59072
2018-05-23T11:19:33.199Z,56320
2018-05-23T11:20:43.434Z,52064
2018-05-23T11:21:54.568Z,45312
2018-05-23T11:23:04.723Z,44736
2018-05-23T11:24:14.944Z,45120
2018-05-23T11:25:25.106Z,46752
2018-05-23T11:26:34.785Z,50496
2018-05-23T11:27:45.004Z,54112
2018-05-23T11:28:55.241Z,55968
2018-05-23T11:30:05.149Z,62880
2018-05-23T11:31:15.298Z,64576
2018-05-23T11:32:25.466Z,65088
2018-05-23T11:33:35.623Z,63264
2018-05-23T11:34:45.189Z,67136
2018-05-23T11:35:54.734Z,72672
2018-05-23T11:37:04.935Z,69728
2018-05-23T11:38:15.093Z,70176
2018-05-23T11:39:25.030Z,73248
2018-05-23T11:40:35.226Z,70144
2018-05-23T11:41:45.182Z,54368
2018-05-23T11:42:54.822Z,53792
2018-05-23T11:44:04.990Z,58912
2018-05-23T11:45:15.145Z,63776
2018-05-23T11:46:25.311Z,65568
2018-05-23T11:47:34.695Z,72576
2018-05-23T11:48:44.882Z,76160
2018-05-23T11:49:54.846Z,78560
2018-05-23T11:51:05.087Z,68672
2018-05-23T11:52:15.541Z,52672
2018-05-23T11:53:25.955Z,43072
2018-05-23T11:54:35.921Z,40352
2018-05-23T11:55:45.826Z,36992
2018-05-23T11:56:55.977Z,36928
2018-05-23T11:58:05.921Z,40000
2018-05-23T11:59:16.264Z,35456
2018-05-23T12:00:26.435Z,41280
2018-05-23T12:01:36.626Z,33760
2018-05-23T12:02:46.391Z,30400
2018-05-23T12:03:56.611Z,30336
2018-05-23T12:05:06.447Z,32320
2018-05-23T12:06:16.631Z,33760
2018-05-23T12:07:26.808Z,29920
2018-05-23T12:08:36.984Z,29440
2018-05-23T12:09:47.262Z,27680
2018-05-23T12:10:57.538Z,26624
2018-05-23T12:12:07.690Z,26720
2018-05-23T12:13:17.939Z,28576
2018-05-23T12:14:28.134Z,30592
2018-05-23T12:15:38.109Z,30656
2018-05-23T12:16:48.319Z,33248
2018-05-23T12:17:58.511Z,33440
2018-05-23T12:19:08.736Z,29856
2018-05-23T12:20:18.365Z,28608
2018-05-23T12:21:28.277Z,29408
2018-05-23T12:22:38.470Z,28640
2018-05-23T12:23:48.618Z,27872
2018-05-23T12:24:58.251Z,28416
2018-05-23T12:26:08.163Z,28416
2018-05-23T12:27:17.568Z,28064
2018-05-23T12:28:27.741Z,25792
2018-05-23T12:29:37.660Z,24352
2018-05-23T12:30:47.265Z,22816
2018-05-23T12:31:57.421Z,20768
2018-05-23T12:33:07.318Z,20000
2018-05-23T12:34:16.870Z,19296
2018-05-23T12:35:27.049Z,18400
2018-05-23T12:36:37.244Z,18272
2018-05-23T12:37:47.190Z,17472
2018-05-23T12:38:57.130Z,17152
2018-05-23T12:40:06.734Z,17248
2018-05-23T12:41:16.646Z,17184
2018-05-23T12:42:26.621Z,17504
2018-05-23T12:43:36.853Z,16576
2018-05-23T12:44:46.657Z,16192
2018-05-23T12:45:56.315Z,16128
2018-05-23T12:47:06.301Z,15648
2018-05-23T12:48:16.453Z,15552
2018-05-23T12:49:26.665Z,15360
2018-05-23T12:50:36.861Z,15328
2018-05-23T12:51:47.030Z,15264
2018-05-23T12:52:56.908Z,15296
2018-05-23T12:54:07.056Z,15456
2018-05-23T12:55:17.212Z,15392
2018-05-23T12:56:27.339Z,15328
2018-05-23T12:57:37.530Z,15232
2018-05-23T12:58:47.587Z,15168
2018-05-23T12:59:57.903Z,15264
2018-05-23T13:01:07.976Z,15168
2018-05-23T13:02:17.883Z,15232
2018-05-23T13:03:28.235Z,15296
2018-05-23T13:04:38.425Z,15424
2018-05-23T13:05:48.625Z,15744
2018-05-23T13:06:58.859Z,15968
2018-05-23T13:08:09.033Z,16160
2018-05-23T13:09:19.181Z,16704
2018-05-23T13:10:29.034Z,17952
2018-05-23T13:11:39.191Z,19360
2018-05-23T13:12:49.290Z,21024
2018-05-23T13:13:59.646Z,25696
2018-05-23T13:15:09.918Z,27712
2018-05-23T13:16:20.082Z,33568
2018-05-23T13:17:29.974Z,66496
2018-05-23T13:18:40.144Z,70528
2018-05-23T13:19:51.033Z,68672
2018-05-23T13:21:01.091Z,71968
2018-05-23T13:22:11.338Z,76896
2018-05-23T13:23:21.524Z,76288
2018-05-23T13:24:31.418Z,78976
2018-05-23T13:25:41.590Z,81600
2018-05-23T13:26:51.747Z,78624
2018-05-23T13:28:01.710Z,74656
2018-05-23T13:29:11.983Z,72384
2018-05-23T13:30:23.555Z,69760
2018-05-23T13:31:34.695Z,68640
2018-05-23T13:32:44.870Z,70848
2018-05-23T13:33:55.056Z,78592
2018-05-23T13:35:04.963Z,83008
2018-05-23T13:36:16.331Z,75328
2018-05-23T13:37:26.517Z,67232
2018-05-23T13:38:36.087Z,64768
2018-05-23T13:39:46.265Z,68896
2018-05-23T13:40:56.415Z,69280
2018-05-23T13:42:06.585Z,63392
2018-05-23T13:43:16.855Z,65952
2018-05-23T13:44:27.432Z,75136
2018-05-23T13:45:37.672Z,81472
2018-05-23T13:46:47.835Z,68288
2018-05-23T13:47:57.705Z,47840
2018-05-23T13:49:07.884Z,54336
2018-05-23T13:50:18.057Z,81984
2018-05-23T13:51:27.957Z,83712
2018-05-23T13:52:38.135Z,58144
2018-05-23T13:53:47.674Z,39136
2018-05-23T13:55:01.313Z,46944
2018-05-23T13:56:16.090Z,60640
2018-05-23T13:57:27.201Z,62816
2018-05-23T13:58:39.748Z,62784
2018-05-23T13:59:50.893Z,61312
2018-05-23T14:01:01.182Z,56704
2018-05-23T14:02:12.425Z,57088
2018-05-23T14:03:22.809Z,60768
2018-05-23T14:04:33.008Z,61824
2018-05-23T14:05:43.188Z,58016
2018-05-23T14:06:55.829Z,53408
2018-05-23T14:08:07.258Z,50272
2018-05-23T14:09:17.448Z,50208
2018-05-23T14:11:47.415Z,57088
2018-05-23T14:12:57.338Z,51840
2018-05-23T14:14:07.556Z,50752
2018-05-23T14:15:20.072Z,50336
2018-05-23T14:16:30.237Z,55456
2018-05-23T14:17:40.388Z,54016
2018-05-23T14:18:50.607Z,52032
2018-05-23T14:20:01.004Z,47648
2018-05-23T14:21:11.197Z,50400
2018-05-23T14:22:21.396Z,56800
2018-05-23T14:23:31.605Z,52224
2018-05-23T14:24:41.511Z,45216
2018-05-23T14:25:51.695Z,51840
2018-05-23T14:27:01.868Z,59264
2018-05-23T14:28:12.052Z,52928
2018-05-23T14:29:22.226Z,43808
2018-05-23T14:30:32.442Z,49152
2018-05-23T14:31:42.679Z,57504
2018-05-23T14:32:52.925Z,56384
2018-05-23T14:34:03.165Z,51520
2018-05-23T14:35:13.121Z,56352
2018-05-23T14:36:23.531Z,61472
2018-05-23T14:37:33.725Z,52896
2018-05-23T14:38:43.951Z,46976
2018-05-23T14:39:54.211Z,49184
2018-05-23T14:41:04.408Z,54208
2018-05-23T14:42:14.712Z,51488
2018-05-23T14:43:24.755Z,49760
2018-05-23T14:44:35.157Z,47456
2018-05-23T14:45:45.341Z,45024
2018-05-23T14:46:55.577Z,46976
2018-05-23T14:48:05.514Z,49376
2018-05-23T14:49:15.681Z,47488
2018-05-23T14:50:25.925Z,47424
2018-05-23T14:51:36.106Z,46272
2018-05-23T14:52:46.266Z,35424
2018-05-23T14:53:56.450Z,33248
2018-05-23T14:55:06.413Z,33536
2018-05-23T14:56:16.833Z,40160
2018-05-23T14:57:27.196Z,41536
2018-05-23T14:58:37.357Z,39360
2018-05-23T14:59:47.532Z,38624
2018-05-23T15:00:57.443Z,43232
2018-05-23T15:02:07.629Z,47232
2018-05-23T15:03:17.812Z,45632
2018-05-23T15:04:27.998Z,41248
2018-05-23T15:05:39.166Z,39232
2018-05-23T15:06:49.406Z,32800
2018-05-23T15:07:59.799Z,21248
2018-05-23T15:09:10.030Z,17920
2018-05-23T15:10:20.208Z,17280
2018-05-23T15:11:30.394Z,16864
2018-05-23T15:12:40.620Z,16608
2018-05-23T15:13:50.852Z,16512
2018-05-23T15:15:01.071Z,16480
2018-05-23T15:16:11.232Z,16352
2018-05-23T15:17:21.430Z,16160
2018-05-23T15:18:31.623Z,16096
2018-05-23T15:19:41.859Z,16032
2018-05-23T15:20:52.126Z,15968
2018-05-23T15:22:02.298Z,15872
2018-05-23T15:23:12.488Z,15744
2018-05-23T15:24:22.658Z,15648
2018-05-23T15:25:32.829Z,15616
2018-05-23T15:26:43.069Z,15488
2018-05-23T15:27:53.298Z,15360
2018-05-23T15:29:03.517Z,15232
2018-05-23T15:30:13.745Z,15104
2018-05-23T15:31:24.133Z,15008
2018-05-23T15:32:34.298Z,14912
2018-05-23T15:33:44.416Z,14720
2018-05-23T15:34:54.212Z,14428
2018-05-23T15:36:03.856Z,14292
2018-05-23T15:37:13.796Z,14188
2018-05-23T15:38:23.954Z,14092
2018-05-23T15:39:34.131Z,14000
2018-05-23T15:40:44.287Z,13880